Time;durP1;ratioP1;P1;durP2;ratioP2;P2;SDS_P1;SDS_P2;PMS_P1;PMS_P2;Temp;Humidity;BMP_temperature;BMP_pressure;BME280_temperature;BME280_humidity;BME280_pressure;Samples;Min_cycle;Max_cycle;Signal;HPM_P1;HPM_P2
2023/09/11 00:01:24;;;;;;;15.57;9.07;;;20.70;99.90;;;;;;6161980;22;90353;-69
2023/09/11 00:03:50;;;;;;;13.10;8.63;;;20.60;99.90;;;;;;6138159;22;90540;-69
2023/09/11 00:06:33;;;;;;;16.88;9.18;;;20.60;99.90;;;;;;6164234;22;91109;-71
2023/09/11 00:09:00;;;;;;;12.40;8.95;;;20.60;99.90;;;;;;6139131;22;86847;-70
2023/09/11 00:11:26;;;;;;;14.35;8.00;;;20.60;99.90;;;;;;6140428;22;87673;-71
2023/09/11 00:13:54;;;;;;;17.17;8.93;;;20.50;99.90;;;;;;6140065;22;87893;-71
2023/09/11 00:16:20;;;;;;;12.60;8.77;;;20.50;99.90;;;;;;6138323;22;95895;-69
2023/09/11 00:18:46;;;;;;;13.00;9.18;;;20.40;99.90;;;;;;6138580;22;88733;-70
2023/09/11 00:21:12;;;;;;;14.13;8.80;;;20.40;99.90;;;;;;6138850;22;87524;-70
2023/09/11 00:23:37;;;;;;;13.18;9.30;;;20.30;99.90;;;;;;6138896;22;88920;-69
2023/09/11 00:26:03;;;;;;;11.30;9.18;;;20.30;99.90;;;;;;6138223;22;87790;-69
2023/09/11 00:28:29;;;;;;;15.20;8.65;;;20.30;99.90;;;;;;6137618;22;87665;-69
2023/09/11 00:30:59;;;;;;;14.63;9.57;;;20.20;99.90;;;;;;6136699;22;87595;-69
2023/09/11 00:33:25;;;;;;;13.73;9.20;;;20.20;99.90;;;;;;6139689;22;90056;-70
2023/09/11 00:35:50;;;;;;;16.02;9.52;;;20.10;99.90;;;;;;6139714;22;87533;-70
2023/09/11 00:38:16;;;;;;;17.48;9.23;;;20.10;99.90;;;;;;6140125;22;87483;-72
2023/09/11 00:40:42;;;;;;;13.50;9.68;;;20.10;99.90;;;;;;6135232;22;90627;-71
2023/09/11 00:43:07;;;;;;;14.57;9.50;;;20.10;99.90;;;;;;6137135;22;87944;-70
2023/09/11 00:45:36;;;;;;;13.43;9.52;;;20.00;99.90;;;;;;6164304;22;91245;-69
2023/09/11 00:48:04;;;;;;;11.38;7.75;;;20.00;99.90;;;;;;6107781;23;88602;-70
2023/09/11 00:50:31;;;;;;;13.55;9.65;;;20.00;99.90;;;;;;6108618;22;88062;-69
2023/09/11 00:52:57;;;;;;;16.52;9.82;;;19.90;99.90;;;;;;6107843;22;88276;-71
2023/09/11 00:55:23;;;;;;;13.18;9.07;;;19.90;99.90;;;;;;6109408;22;88920;-69
2023/09/11 00:57:50;;;;;;;11.10;9.18;;;19.90;99.90;;;;;;6109693;22;86849;-71
2023/09/11 01:00:16;;;;;;;16.60;8.55;;;19.80;99.90;;;;;;6109623;22;87410;-70
2023/09/11 01:02:42;;;;;;;12.15;8.75;;;19.80;99.90;;;;;;6109501;22;88469;-69
2023/09/11 01:05:08;;;;;;;10.93;8.52;;;19.80;99.90;;;;;;6108318;22;88464;-70
2023/09/11 01:07:37;;;;;;;17.60;8.85;;;19.70;99.90;;;;;;6107661;23;87661;-70
2023/09/11 01:10:06;;;;;;;12.18;9.52;;;19.70;99.90;;;;;;6109302;22;87599;-69
2023/09/11 01:12:41;;;;;;;11.70;8.65;;;19.70;99.90;;;;;;6108753;23;92041;-69
2023/09/11 01:15:08;;;;;;;12.55;8.70;;;19.60;99.90;;;;;;6108934;23;91840;-69
2023/09/11 01:17:48;;;;;;;15.63;9.23;;;19.60;99.90;;;;;;6132290;22;87544;-70
2023/09/11 01:20:42;;;;;;;15.70;9.48;;;19.60;99.90;;;;;;6109106;22;87852;-69
2023/09/11 01:23:50;;;;;;;15.87;9.67;;;19.60;99.90;;;;;;6133500;22;91008;-69
2023/09/11 01:26:52;;;;;;;13.98;9.52;;;19.60;99.90;;;;;;6133444;22;90029;-71
2023/09/11 01:29:28;;;;;;;13.20;9.13;;;19.50;99.90;;;;;;6107529;22;87614;-68
2023/09/11 01:31:54;;;;;;;12.25;8.65;;;19.50;99.90;;;;;;6107046;22;88429;-68
2023/09/11 01:34:20;;;;;;;15.80;9.50;;;19.50;99.90;;;;;;6109082;22;88201;-70
2023/09/11 01:36:46;;;;;;;19.40;9.82;;;19.50;99.90;;;;;;6107506;22;91138;-70
2023/09/11 01:39:12;;;;;;;16.45;9.52;;;19.50;99.90;;;;;;6110151;23;87651;-69
2023/09/11 01:41:41;;;;;;;16.70;9.13;;;19.50;99.90;;;;;;6109666;22;87904;-70
2023/09/11 01:44:32;;;;;;;15.20;10.40;;;19.40;99.90;;;;;;6132479;22;90828;-70
2023/09/11 01:46:59;;;;;;;15.82;9.38;;;19.40;99.90;;;;;;6108369;22;88486;-70
2023/09/11 01:49:26;;;;;;;19.40;9.30;;;19.30;99.90;;;;;;6109883;22;87039;-70
2023/09/11 01:51:53;;;;;;;16.27;9.20;;;19.30;99.90;;;;;;6133566;22;90195;-70
2023/09/11 01:54:19;;;;;;;10.70;8.65;;;19.30;99.90;;;;;;6108429;23;90584;-69
2023/09/11 01:56:46;;;;;;;14.20;9.23;;;19.30;99.90;;;;;;6106943;23;91077;-69
2023/09/11 01:59:15;;;;;;;16.60;9.05;;;19.30;99.90;;;;;;6109275;22;87527;-69
2023/09/11 02:01:42;;;;;;;13.98;7.88;;;19.20;99.90;;;;;;6107181;23;87775;-72
2023/09/11 02:04:08;;;;;;;13.10;8.35;;;19.20;99.90;;;;;;6131554;22;91346;-69
2023/09/11 02:06:33;;;;;;;10.75;7.53;;;19.10;99.90;;;;;;6131496;22;91597;-71
2023/09/11 02:09:02;;;;;;;14.07;7.72;;;19.10;99.90;;;;;;6109234;22;87612;-70
2023/09/11 02:11:30;;;;;;;12.45;8.00;;;19.10;99.90;;;;;;6133135;22;90007;-71
2023/09/11 02:13:56;;;;;;;15.13;8.45;;;19.10;99.90;;;;;;6108070;23;91275;-70
2023/09/11 02:16:21;;;;;;;13.52;8.50;;;19.00;99.90;;;;;;6108966;22;87858;-69
2023/09/11 02:18:47;;;;;;;16.98;8.63;;;19.00;99.90;;;;;;6108831;23;87776;-69
2023/09/11 02:21:22;;;;;;;15.82;8.52;;;19.00;99.90;;;;;;6109645;23;88447;-71
2023/09/11 02:23:47;;;;;;;12.77;8.40;;;18.90;99.90;;;;;;6107233;23;91326;-72
2023/09/11 02:26:13;;;;;;;14.63;9.15;;;18.90;99.90;;;;;;6109541;22;87575;-71
2023/09/11 02:28:40;;;;;;;16.15;8.77;;;18.80;99.90;;;;;;6109261;23;88010;-70
2023/09/11 02:31:06;;;;;;;13.23;9.13;;;18.80;99.90;;;;;;6107770;23;87777;-70
2023/09/11 02:33:32;;;;;;;18.13;9.75;;;18.80;99.90;;;;;;6108858;23;87460;-71
2023/09/11 02:35:59;;;;;;;21.77;8.95;;;18.80;99.90;;;;;;6106135;23;90926;-70
2023/09/11 02:38:25;;;;;;;14.77;9.32;;;18.80;99.90;;;;;;6108016;22;86959;-69
2023/09/11 02:40:51;;;;;;;15.05;8.55;;;18.80;99.90;;;;;;6110965;23;87779;-69
2023/09/11 02:43:16;;;;;;;19.77;9.55;;;18.70;99.90;;;;;;6110081;22;88033;-70
2023/09/11 02:45:43;;;;;;;17.63;8.90;;;18.70;99.90;;;;;;6133195;22;91665;-70
2023/09/11 02:48:09;;;;;;;16.65;8.90;;;18.70;99.90;;;;;;6110956;23;87557;-71
2023/09/11 02:50:35;;;;;;;12.50;8.48;;;18.70;99.90;;;;;;6110170;22;87529;-71
2023/09/11 02:53:00;;;;;;;14.38;8.98;;;18.60;99.90;;;;;;6109488;22;88192;-69
2023/09/11 02:55:26;;;;;;;14.10;9.15;;;18.70;99.90;;;;;;6108374;23;88528;-69
2023/09/11 02:57:52;;;;;;;12.13;8.57;;;18.60;99.90;;;;;;6133183;22;87564;-69
2023/09/11 03:00:17;;;;;;;14.48;9.23;;;18.60;99.90;;;;;;6107163;23;87526;-70
2023/09/11 03:02:45;;;;;;;14.05;9.00;;;18.70;99.90;;;;;;6110341;23;87258;-68
2023/09/11 03:05:10;;;;;;;14.48;8.85;;;18.60;99.90;;;;;;6108760;22;88479;-68
2023/09/11 03:07:36;;;;;;;11.05;9.05;;;18.60;99.90;;;;;;6108566;23;87703;-71
2023/09/11 03:10:03;;;;;;;14.55;9.13;;;18.60;99.90;;;;;;6109223;22;88524;-70
2023/09/11 03:12:29;;;;;;;14.68;8.60;;;18.60;99.90;;;;;;6108910;23;89358;-69
2023/09/11 03:15:03;;;;;;;15.20;9.27;;;18.60;99.90;;;;;;6110379;22;88165;-71
2023/09/11 03:17:29;;;;;;;13.23;7.95;;;18.60;99.90;;;;;;6109490;23;87717;-70
2023/09/11 03:19:55;;;;;;;12.07;8.60;;;18.60;99.90;;;;;;6133584;22;90007;-70
2023/09/11 03:22:22;;;;;;;15.25;9.32;;;18.60;99.90;;;;;;6108592;23;91322;-69
2023/09/11 03:24:48;;;;;;;13.23;8.50;;;18.60;99.90;;;;;;6109060;22;88129;-71
2023/09/11 03:27:14;;;;;;;19.98;9.40;;;18.60;99.90;;;;;;6110652;22;86648;-68
2023/09/11 03:29:40;;;;;;;11.13;8.65;;;18.60;99.90;;;;;;6109810;22;87801;-69
2023/09/11 03:32:06;;;;;;;16.02;9.80;;;18.60;99.90;;;;;;6109748;23;88463;-70
2023/09/11 03:34:31;;;;;;;13.80;8.95;;;18.60;99.90;;;;;;6109296;23;88416;-70
2023/09/11 03:36:57;;;;;;;18.08;9.18;;;18.60;99.90;;;;;;6108781;23;87658;-70
2023/09/11 03:39:23;;;;;;;14.07;9.43;;;18.60;99.90;;;;;;6110864;22;87383;-70
2023/09/11 03:41:54;;;;;;;18.73;9.98;;;18.60;99.90;;;;;;6110490;22;88720;-69
2023/09/11 03:44:19;;;;;;;25.30;10.15;;;18.60;99.90;;;;;;6109714;22;88526;-69
2023/09/11 03:46:45;;;;;;;15.75;10.23;;;18.60;99.90;;;;;;6108291;23;87517;-69
2023/09/11 03:49:10;;;;;;;14.57;8.68;;;18.60;99.90;;;;;;6107570;22;88806;-70
2023/09/11 03:51:36;;;;;;;19.63;10.75;;;18.60;99.90;;;;;;6109597;23;87915;-71
2023/09/11 03:54:07;;;;;;;13.45;9.90;;;18.60;99.90;;;;;;6107567;23;90830;-70
2023/09/11 03:56:32;;;;;;;15.00;9.68;;;18.60;99.90;;;;;;6107829;23;87586;-70
2023/09/11 03:58:58;;;;;;;17.83;9.98;;;18.60;99.90;;;;;;6109018;23;88514;-68
2023/09/11 04:01:24;;;;;;;15.07;10.23;;;18.60;99.90;;;;;;6107364;22;88120;-71
2023/09/11 04:03:49;;;;;;;14.65;9.85;;;18.60;99.90;;;;;;6107397;22;87924;-71
2023/09/11 04:06:15;;;;;;;16.23;9.63;;;18.60;99.90;;;;;;6108942;22;87754;-71
2023/09/11 04:08:41;;;;;;;19.35;9.75;;;18.50;99.90;;;;;;6109275;23;87595;-69
2023/09/11 04:11:06;;;;;;;15.63;10.55;;;18.50;99.90;;;;;;6133222;22;91817;-69
2023/09/11 04:13:32;;;;;;;21.70;9.75;;;18.50;99.90;;;;;;6108988;23;89244;-71
2023/09/11 04:15:58;;;;;;;13.68;9.63;;;18.50;99.90;;;;;;6110134;22;87727;-69
2023/09/11 04:18:23;;;;;;;18.45;10.02;;;18.40;99.90;;;;;;6109959;23;87716;-68
2023/09/11 04:20:49;;;;;;;18.05;9.43;;;18.40;99.90;;;;;;6109004;23;88197;-69
2023/09/11 04:23:14;;;;;;;17.55;10.82;;;18.40;99.90;;;;;;6131022;22;91752;-70
2023/09/11 04:25:44;;;;;;;16.00;9.73;;;18.40;99.90;;;;;;6107717;22;87485;-70
2023/09/11 04:28:09;;;;;;;18.02;9.25;;;18.40;99.90;;;;;;6109035;22;87305;-69
2023/09/11 04:30:35;;;;;;;15.32;9.20;;;18.40;99.90;;;;;;6132952;22;91127;-69
2023/09/11 04:33:02;;;;;;;17.63;10.35;;;18.40;99.90;;;;;;6132177;22;95616;-71
2023/09/11 04:35:28;;;;;;;17.23;9.43;;;18.30;99.90;;;;;;6109190;23;87641;-70
2023/09/11 04:37:54;;;;;;;13.85;9.07;;;18.30;99.90;;;;;;6109335;22;87731;-70
2023/09/11 04:40:19;;;;;;;16.40;9.18;;;18.30;99.90;;;;;;6109795;22;88086;-69
2023/09/11 04:42:45;;;;;;;13.60;8.77;;;18.20;99.90;;;;;;6109236;23;87822;-70
2023/09/11 04:45:11;;;;;;;13.52;8.73;;;18.20;99.90;;;;;;6109316;23;87656;-70
2023/09/11 04:47:36;;;;;;;13.85;9.15;;;18.20;99.90;;;;;;6109774;23;88667;-70
2023/09/11 04:50:03;;;;;;;15.68;9.48;;;18.20;99.90;;;;;;6110027;23;88098;-68
2023/09/11 04:52:29;;;;;;;16.15;9.20;;;18.10;99.90;;;;;;6108776;23;87924;-70
2023/09/11 04:54:55;;;;;;;13.50;9.35;;;18.10;99.90;;;;;;6109574;22;87700;-69
2023/09/11 04:57:20;;;;;;;18.10;10.10;;;18.10;99.90;;;;;;6133831;22;88975;-71
2023/09/11 04:59:46;;;;;;;15.13;9.73;;;18.00;99.90;;;;;;6107558;23;90793;-69
2023/09/11 05:02:12;;;;;;;22.25;9.65;;;18.00;99.90;;;;;;6107458;22;88342;-69
2023/09/11 05:04:39;;;;;;;19.92;9.13;;;18.00;99.90;;;;;;6109984;23;87294;-71
2023/09/11 05:07:05;;;;;;;18.23;10.05;;;18.00;99.90;;;;;;6106544;23;88193;-68
2023/09/11 05:09:31;;;;;;;14.48;8.77;;;18.00;99.90;;;;;;6103182;23;87680;-69
2023/09/11 05:11:57;;;;;;;18.48;9.63;;;18.00;99.90;;;;;;6103235;22;88485;-70
2023/09/11 05:14:23;;;;;;;17.67;9.70;;;18.00;99.90;;;;;;6105304;23;87469;-71
2023/09/11 05:16:49;;;;;;;16.63;9.90;;;17.90;99.90;;;;;;6107478;23;89209;-69
2023/09/11 05:19:15;;;;;;;16.13;9.23;;;17.90;99.90;;;;;;6109804;23;87377;-70
2023/09/11 05:21:41;;;;;;;13.82;8.45;;;17.90;99.90;;;;;;6131483;22;91223;-68
2023/09/11 05:24:06;;;;;;;15.75;8.70;;;17.90;99.90;;;;;;6108622;23;87904;-69
2023/09/11 05:26:32;;;;;;;25.17;9.18;;;17.90;99.90;;;;;;6133389;22;90996;-69
2023/09/11 05:28:58;;;;;;;17.83;10.15;;;17.90;99.90;;;;;;6110295;22;86929;-71
2023/09/11 05:31:24;;;;;;;26.83;9.45;;;17.90;99.90;;;;;;6107682;23;87556;-69
2023/09/11 05:33:49;;;;;;;13.80;9.63;;;18.00;99.90;;;;;;6107955;23;87936;-69
2023/09/11 05:36:15;;;;;;;20.30;10.38;;;18.00;99.90;;;;;;6108815;23;88827;-69
2023/09/11 05:38:41;;;;;;;18.27;8.57;;;18.00;99.90;;;;;;6108638;22;88526;-71
2023/09/11 05:41:07;;;;;;;17.85;9.20;;;18.00;99.90;;;;;;6109682;23;87650;-69
2023/09/11 05:43:32;;;;;;;15.93;9.55;;;18.00;99.90;;;;;;6109866;23;87819;-70
2023/09/11 05:45:58;;;;;;;14.43;9.43;;;18.00;99.90;;;;;;6109208;23;87708;-70
2023/09/11 05:48:26;;;;;;;16.45;9.57;;;18.10;99.90;;;;;;6110176;23;89113;-71
2023/09/11 05:50:51;;;;;;;17.40;9.65;;;18.10;99.90;;;;;;6107997;23;90151;-70
2023/09/11 05:53:17;;;;;;;14.70;9.85;;;18.20;99.90;;;;;;6109871;23;86870;-70
2023/09/11 05:55:43;;;;;;;14.13;9.68;;;18.20;99.90;;;;;;6109089;23;87760;-69
2023/09/11 05:58:08;;;;;;;17.98;9.13;;;18.20;99.90;;;;;;6108549;23;88060;-69
2023/09/11 06:00:34;;;;;;;15.65;8.50;;;18.30;99.90;;;;;;6107484;23;89030;-71
2023/09/11 06:03:00;;;;;;;26.70;9.82;;;18.30;99.90;;;;;;6108630;22;87165;-71
2023/09/11 06:05:25;;;;;;;15.27;8.30;;;18.40;99.90;;;;;;6131815;22;90092;-70
2023/09/11 06:07:52;;;;;;;15.48;9.77;;;18.40;99.90;;;;;;6108137;22;87181;-69
2023/09/11 06:10:17;;;;;;;23.92;10.25;;;18.40;99.90;;;;;;6108417;23;88369;-69
2023/09/11 06:12:43;;;;;;;33.53;11.10;;;18.50;99.90;;;;;;6109098;23;87470;-71
2023/09/11 06:15:09;;;;;;;16.20;8.63;;;18.50;99.90;;;;;;6110969;23;87995;-69
2023/09/11 06:17:35;;;;;;;19.23;9.27;;;18.60;99.90;;;;;;6110468;23;87622;-70
2023/09/11 06:20:01;;;;;;;12.80;8.35;;;18.70;99.90;;;;;;6110995;23;88028;-69
2023/09/11 06:22:27;;;;;;;19.10;8.50;;;18.70;99.90;;;;;;6110259;23;87663;-68
2023/09/11 06:24:52;;;;;;;17.77;8.45;;;18.80;99.90;;;;;;6109716;23;88013;-71
2023/09/11 06:27:19;;;;;;;18.50;9.02;;;18.80;99.90;;;;;;6109759;23;87980;-71
2023/09/11 06:29:44;;;;;;;20.92;9.23;;;18.90;99.90;;;;;;6110561;23;88384;-70
2023/09/11 06:32:15;;;;;;;18.40;8.25;;;19.00;99.90;;;;;;6110505;22;87485;-69
2023/09/11 06:34:40;;;;;;;16.55;9.23;;;19.10;99.90;;;;;;6109059;23;90478;-69
2023/09/11 06:37:09;;;;;;;12.98;8.52;;;19.20;99.90;;;;;;6108845;22;87992;-72
2023/09/11 06:39:34;;;;;;;17.17;8.98;;;19.30;99.90;;;;;;6110555;23;87803;-69
2023/09/11 06:42:00;;;;;;;16.92;8.75;;;19.40;99.90;;;;;;6109770;23;87246;-68
2023/09/11 06:44:26;;;;;;;20.60;9.20;;;19.50;99.90;;;;;;6110267;23;89600;-69
2023/09/11 06:46:51;;;;;;;13.10;7.43;;;19.60;99.90;;;;;;6107899;23;87910;-68
2023/09/11 06:49:17;;;;;;;12.95;7.38;;;19.70;99.90;;;;;;6106947;22;88747;-69
2023/09/11 06:51:43;;;;;;;13.43;7.38;;;19.80;99.90;;;;;;6133634;22;87195;-70
2023/09/11 06:54:09;;;;;;;13.82;7.88;;;19.80;99.90;;;;;;6109439;23;90559;-72
2023/09/11 06:56:36;;;;;;;21.83;8.30;;;19.90;99.90;;;;;;6107884;23;90142;-72
2023/09/11 06:59:02;;;;;;;15.52;8.27;;;20.00;99.90;;;;;;6132747;22;91176;-70
2023/09/11 07:01:29;;;;;;;16.70;7.80;;;20.10;99.90;;;;;;6108262;23;87361;-69
2023/09/11 07:03:54;;;;;;;12.98;7.60;;;20.20;99.90;;;;;;6108933;22;87924;-70
2023/09/11 07:06:20;;;;;;;21.92;7.95;;;20.30;99.60;;;;;;6108869;23;87408;-71
2023/09/11 07:08:46;;;;;;;20.65;7.80;;;20.40;99.50;;;;;;6109640;22;87920;-71
2023/09/11 07:11:11;;;;;;;18.98;8.32;;;20.50;99.50;;;;;;6108869;23;87684;-69
2023/09/11 07:13:38;;;;;;;20.25;7.82;;;20.60;99.80;;;;;;6107141;23;89943;-72
2023/09/11 07:16:04;;;;;;;24.63;8.43;;;20.70;99.30;;;;;;6134260;22;91237;-71
2023/09/11 07:18:31;;;;;;;19.70;7.40;;;20.80;99.10;;;;;;6107798;23;88745;-69
2023/09/11 07:20:57;;;;;;;13.88;6.97;;;20.80;98.80;;;;;;6110728;22;87329;-68
2023/09/11 07:23:23;;;;;;;17.58;7.50;;;20.90;98.90;;;;;;6109468;23;87686;-71
2023/09/11 07:25:52;;;;;;;20.20;6.65;;;21.00;98.60;;;;;;6108717;23;88026;-68
2023/09/11 07:28:18;;;;;;;17.88;7.30;;;21.10;98.50;;;;;;6107459;23;90240;-69
2023/09/11 07:30:44;;;;;;;16.42;7.65;;;21.20;97.90;;;;;;6110242;23;86640;-68
2023/09/11 07:33:11;;;;;;;13.52;7.10;;;21.30;98.60;;;;;;6109908;23;87790;-73
2023/09/11 07:35:37;;;;;;;19.30;8.13;;;21.40;97.50;;;;;;6131067;22;91319;-69
2023/09/11 07:38:05;;;;;;;18.65;8.23;;;21.50;97.30;;;;;;6106678;23;88573;-69
2023/09/11 07:40:33;;;;;;;16.00;8.45;;;21.60;97.70;;;;;;6108178;22;87827;-70
2023/09/11 07:42:59;;;;;;;20.17;8.52;;;21.70;97.30;;;;;;6109162;23;87308;-70
2023/09/11 07:45:25;;;;;;;16.25;8.60;;;21.80;97.20;;;;;;6109451;23;88317;-73
2023/09/11 07:47:51;;;;;;;17.55;8.20;;;21.90;97.30;;;;;;6109086;22;87855;-69
2023/09/11 07:50:16;;;;;;;17.75;9.23;;;22.00;96.70;;;;;;6110344;23;87599;-72
2023/09/11 07:52:42;;;;;;;15.15;9.32;;;22.10;96.20;;;;;;6109522;23;87744;-73
2023/09/11 07:55:08;;;;;;;21.20;10.00;;;22.20;96.20;;;;;;6134179;22;90228;-72
2023/09/11 07:57:33;;;;;;;14.85;9.43;;;22.30;96.10;;;;;;6109222;23;87955;-69
2023/09/11 08:00:04;;;;;;;20.38;10.02;;;22.30;96.30;;;;;;6110185;22;88473;-71
2023/09/11 08:02:30;;;;;;;20.50;10.27;;;22.40;96.70;;;;;;6108292;23;88414;-69
2023/09/11 08:04:56;;;;;;;19.67;11.00;;;22.50;95.90;;;;;;6109746;23;87807;-69
2023/09/11 08:07:22;;;;;;;15.30;10.27;;;22.60;95.30;;;;;;6108415;22;87638;-73
2023/09/11 08:09:48;;;;;;;17.35;10.98;;;22.70;95.60;;;;;;6133226;22;87471;-71
2023/09/11 08:12:15;;;;;;;21.50;10.65;;;22.70;95.60;;;;;;6108849;23;90150;-69
2023/09/11 08:14:41;;;;;;;16.33;10.43;;;22.80;96.30;;;;;;6108222;22;90783;-73
2023/09/11 08:17:07;;;;;;;20.60;11.50;;;22.90;95.60;;;;;;6108244;23;88540;-70
2023/09/11 08:19:32;;;;;;;22.92;10.88;;;23.00;95.80;;;;;;6108599;22;86745;-69
2023/09/11 08:21:58;;;;;;;18.73;11.52;;;23.10;95.90;;;;;;6109043;23;87830;-69
2023/09/11 08:24:23;;;;;;;24.60;12.07;;;23.20;95.50;;;;;;6109465;23;87606;-71
2023/09/11 08:26:49;;;;;;;21.83;11.65;;;23.30;95.30;;;;;;6110138;23;88496;-70
2023/09/11 08:29:15;;;;;;;22.33;11.90;;;23.40;94.80;;;;;;6107881;22;87976;-71
2023/09/11 08:31:41;;;;;;;18.73;11.95;;;23.50;94.70;;;;;;6109316;22;88370;-72
2023/09/11 08:34:07;;;;;;;21.70;12.65;;;23.60;94.70;;;;;;6109320;22;88181;-70
2023/09/11 08:36:33;;;;;;;25.95;12.73;;;23.60;93.90;;;;;;6109223;23;90959;-72
2023/09/11 08:38:59;;;;;;;18.27;11.07;;;23.70;94.20;;;;;;6110829;22;88018;-69
2023/09/11 08:41:25;;;;;;;26.02;11.68;;;23.80;94.40;;;;;;6109622;23;87509;-71
2023/09/11 08:43:52;;;;;;;20.58;11.80;;;23.90;93.90;;;;;;6133782;22;90500;-73
2023/09/11 08:46:21;;;;;;;18.45;11.93;;;24.00;93.70;;;;;;6109829;23;87967;-70
2023/09/11 08:48:49;;;;;;;19.80;11.88;;;24.10;93.20;;;;;;6109874;23;87763;-71
2023/09/11 08:51:23;;;;;;;17.85;11.18;;;24.20;93.00;;;;;;6108500;23;90167;-71
2023/09/11 08:53:54;;;;;;;18.40;10.07;;;24.30;93.30;;;;;;6108716;23;91697;-69
2023/09/11 08:56:20;;;;;;;14.35;9.43;;;24.40;92.80;;;;;;6107469;23;88903;-72
2023/09/11 08:58:48;;;;;;;20.63;10.70;;;24.50;93.50;;;;;;6148249;22;88874;-70
2023/09/11 09:01:15;;;;;;;16.42;9.50;;;24.60;92.10;;;;;;6137360;22;89733;-69
2023/09/11 09:03:41;;;;;;;14.20;9.18;;;24.70;92.30;;;;;;6139936;22;88276;-71
2023/09/11 09:06:07;;;;;;;19.17;9.57;;;24.80;92.20;;;;;;6165036;22;89943;-69
2023/09/11 09:08:34;;;;;;;18.00;10.10;;;25.00;92.80;;;;;;6141486;22;87264;-70
2023/09/11 09:11:01;;;;;;;18.30;8.50;;;25.10;90.90;;;;;;6139589;22;87723;-72
2023/09/11 09:13:30;;;;;;;16.00;8.82;;;25.10;91.10;;;;;;6139064;22;91989;-70
2023/09/11 09:15:58;;;;;;;19.52;9.45;;;25.30;91.00;;;;;;6138997;22;90725;-71
2023/09/11 09:18:24;;;;;;;14.75;10.18;;;25.40;90.90;;;;;;6141269;22;87755;-71
2023/09/11 09:20:52;;;;;;;20.05;9.20;;;25.50;90.70;;;;;;6138412;22;90487;-69
2023/09/11 09:23:17;;;;;;;15.10;9.40;;;25.70;91.40;;;;;;6140481;22;88020;-72
2023/09/11 09:25:43;;;;;;;15.65;9.00;;;25.80;90.30;;;;;;6140366;22;89219;-70
2023/09/11 09:28:25;;;;;;;16.63;8.32;;;25.90;91.30;;;;;;6165356;22;88332;-71
2023/09/11 09:30:56;;;;;;;20.05;9.10;;;26.00;91.10;;;;;;6163952;22;89337;-71
2023/09/11 09:33:22;;;;;;;13.60;9.65;;;26.20;90.00;;;;;;6141402;22;87375;-71
2023/09/11 09:35:48;;;;;;;22.55;8.95;;;26.30;90.30;;;;;;6137495;22;90842;-71
2023/09/11 09:38:18;;;;;;;14.60;8.80;;;26.40;90.80;;;;;;6164172;22;87512;-69
2023/09/11 09:40:44;;;;;;;15.32;8.43;;;26.50;87.70;;;;;;6138215;22;89915;-71
2023/09/11 09:43:15;;;;;;;17.13;8.48;;;26.60;89.90;;;;;;6139875;22;88460;-71
2023/09/11 09:45:44;;;;;;;24.30;9.50;;;26.80;88.80;;;;;;6164700;22;89977;-70
2023/09/11 09:48:11;;;;;;;12.50;8.52;;;27.00;87.20;;;;;;6140620;22;88018;-70
2023/09/11 09:50:59;;;;;;;18.30;9.02;;;27.10;87.10;;;;;;6164994;22;89760;-71
2023/09/11 09:53:33;;;;;;;13.65;8.60;;;27.20;87.30;;;;;;6136960;22;91253;-72
2023/09/11 09:56:09;;;;;;;12.77;8.00;;;27.30;84.90;;;;;;6163627;22;91652;-72
2023/09/11 09:58:36;;;;;;;14.82;8.15;;;27.40;86.70;;;;;;6139156;22;87168;-70
2023/09/11 10:01:05;;;;;;;14.77;7.78;;;27.50;84.50;;;;;;6137795;22;87849;-70
2023/09/11 10:03:47;;;;;;;13.23;7.72;;;27.70;84.00;;;;;;6139139;22;88229;-70
2023/09/11 10:06:27;;;;;;;10.00;6.43;;;27.90;83.00;;;;;;6108256;23;93581;-70
2023/09/11 10:09:10;;;;;;;12.57;6.15;;;28.00;85.30;;;;;;6109914;22;87688;-70
2023/09/11 10:11:37;;;;;;;13.52;7.45;;;28.30;82.10;;;;;;6132079;22;88513;-71
2023/09/11 10:14:05;;;;;;;18.00;6.63;;;28.40;80.60;;;;;;6108753;23;87606;-70
2023/09/11 10:16:31;;;;;;;11.57;6.43;;;28.50;80.40;;;;;;6110481;22;87708;-68
2023/09/11 10:18:58;;;;;;;9.32;5.82;;;28.60;80.20;;;;;;6133942;22;87694;-68
2023/09/11 10:21:25;;;;;;;10.95;6.30;;;28.80;83.30;;;;;;6111927;22;87794;-67
2023/09/11 10:23:52;;;;;;;11.52;6.50;;;29.00;79.20;;;;;;6109630;22;86991;-68
2023/09/11 10:26:26;;;;;;;9.52;5.82;;;29.10;76.30;;;;;;6110610;23;89538;-68
2023/09/11 10:28:55;;;;;;;9.13;4.88;;;29.20;75.50;;;;;;6113233;22;87801;-68
2023/09/11 10:31:25;;;;;;;14.95;6.50;;;29.30;78.60;;;;;;6112714;22;88427;-70
2023/09/11 10:33:54;;;;;;;11.52;6.10;;;29.60;76.70;;;;;;6112009;23;87898;-68
2023/09/11 10:36:22;;;;;;;13.70;6.22;;;29.80;78.20;;;;;;6112701;22;88837;-68
2023/09/11 10:38:49;;;;;;;10.90;4.60;;;29.90;77.40;;;;;;6111454;23;87636;-71
2023/09/11 10:41:15;;;;;;;11.55;5.85;;;30.20;79.60;;;;;;6111434;22;88212;-69
2023/09/11 10:43:42;;;;;;;10.85;5.18;;;30.40;73.30;;;;;;6111721;23;88032;-73
2023/09/11 10:46:19;;;;;;;10.00;5.57;;;30.50;71.70;;;;;;6112845;22;87831;-71
2023/09/11 10:48:45;;;;;;;19.38;5.80;;;30.60;75.40;;;;;;6111872;22;86666;-70
2023/09/11 10:51:13;;;;;;;8.02;5.20;;;30.80;73.30;;;;;;6112695;23;87569;-69
2023/09/11 10:53:40;;;;;;;10.02;5.45;;;31.00;70.80;;;;;;6111774;22;87465;-72
2023/09/11 10:56:07;;;;;;;10.25;5.13;;;31.10;71.40;;;;;;6111125;23;88710;-71
2023/09/11 10:58:32;;;;;;;12.75;3.47;;;31.20;66.00;;;;;;6109230;23;88817;-70
2023/09/11 11:00:59;;;;;;;7.25;4.50;;;31.30;68.00;;;;;;6111270;22;87360;-71
2023/09/11 11:03:35;;;;;;;9.43;4.63;;;31.30;65.20;;;;;;6113848;23;87532;-69
2023/09/11 11:06:02;;;;;;;12.73;5.13;;;31.30;65.10;;;;;;6134861;22;88523;-70
2023/09/11 11:08:34;;;;;;;10.52;4.57;;;31.30;62.60;;;;;;6111218;22;87344;-70
2023/09/11 11:11:01;;;;;;;10.07;5.17;;;31.20;66.40;;;;;;6110805;22;87604;-69
2023/09/11 11:13:27;;;;;;;10.43;5.30;;;31.30;64.80;;;;;;6110191;22;89972;-72
2023/09/11 11:16:19;;;;;;;12.45;4.80;;;31.40;65.60;;;;;;6110735;22;87694;-71
2023/09/11 11:18:45;;;;;;;10.45;5.28;;;31.30;64.80;;;;;;6111000;23;87400;-70
2023/09/11 11:21:10;;;;;;;8.43;4.75;;;31.30;64.40;;;;;;6111252;23;88704;-70
2023/09/11 11:23:56;;;;;;;8.27;4.40;;;31.20;64.70;;;;;;6110221;22;89127;-71
2023/09/11 11:26:26;;;;;;;8.48;4.38;;;31.30;69.20;;;;;;6110623;22;87859;-71
2023/09/11 11:28:52;;;;;;;10.18;4.78;;;31.40;65.80;;;;;;6125636;22;91017;-71
2023/09/11 11:31:20;;;;;;;7.20;4.90;;;31.60;68.90;;;;;;6139424;22;87672;-69
2023/09/11 11:33:48;;;;;;;8.13;4.45;;;31.90;63.20;;;;;;6136235;22;87988;-72
2023/09/11 11:36:20;;;;;;;5.95;4.38;;;31.90;63.60;;;;;;6138136;22;91558;-69
2023/09/11 11:38:55;;;;;;;8.70;4.47;;;32.10;67.00;;;;;;6139193;22;86820;-70
2023/09/11 11:41:21;;;;;;;12.45;4.75;;;32.40;66.50;;;;;;6140555;22;87605;-70
2023/09/11 11:43:46;;;;;;;8.45;5.15;;;32.50;62.30;;;;;;6139637;22;88648;-69
2023/09/11 11:46:16;;;;;;;8.77;4.40;;;32.50;62.30;;;;;;6138157;22;89763;-69
2023/09/11 11:48:42;;;;;;;6.57;4.15;;;32.60;65.40;;;;;;6139033;22;87536;-71
2023/09/11 11:51:08;;;;;;;13.50;4.65;;;32.80;64.40;;;;;;6140387;22;87358;-71
2023/09/11 11:53:54;;;;;;;11.43;4.10;;;32.90;60.60;;;;;;6139233;22;88895;-71
2023/09/11 11:56:23;;;;;;;10.55;4.70;;;33.00;63.30;;;;;;6163728;22;91153;-69
2023/09/11 11:58:49;;;;;;;8.90;4.20;;;33.20;62.90;;;;;;6138700;22;88023;-69
2023/09/11 12:01:15;;;;;;;7.70;4.25;;;33.40;60.10;;;;;;6138710;22;87556;-70
2023/09/11 12:03:50;;;;;;;11.32;4.20;;;33.40;59.20;;;;;;6139702;22;87033;-70
2023/09/11 12:06:18;;;;;;;21.15;4.28;;;33.30;56.90;;;;;;6164247;22;89034;-71
2023/09/11 12:08:47;;;;;;;12.05;4.28;;;33.30;59.00;;;;;;6139642;22;87485;-69
2023/09/11 12:11:13;;;;;;;11.55;4.45;;;33.30;58.90;;;;;;6138566;22;88332;-70
2023/09/11 12:13:39;;;;;;;10.35;4.18;;;33.40;59.10;;;;;;6140041;22;88767;-68
2023/09/11 12:16:05;;;;;;;20.90;4.70;;;33.30;57.80;;;;;;6140053;22;88274;-69
2023/09/11 12:18:35;;;;;;;7.60;3.97;;;33.30;57.20;;;;;;6141875;22;87444;-73
2023/09/11 12:21:04;;;;;;;9.38;3.63;;;33.40;57.20;;;;;;6140621;22;87375;-68
2023/09/11 12:23:30;;;;;;;7.10;4.07;;;33.40;58.40;;;;;;6139027;22;87696;-71
2023/09/11 12:25:56;;;;;;;8.93;4.00;;;33.50;55.50;;;;;;6163229;22;90350;-72
2023/09/11 12:28:23;;;;;;;14.80;5.80;;;33.60;59.00;;;;;;6141285;22;87000;-71
2023/09/11 12:30:50;;;;;;;8.52;3.80;;;33.80;60.00;;;;;;6139998;22;87669;-70
2023/09/11 12:33:22;;;;;;;13.68;4.80;;;33.80;55.00;;;;;;6141199;22;88248;-72
2023/09/11 12:35:51;;;;;;;8.32;4.28;;;33.90;55.70;;;;;;6139038;22;88176;-71
2023/09/11 12:38:17;;;;;;;8.85;4.47;;;34.00;54.70;;;;;;6140638;22;87920;-71